createdAt,value
2023-04-07T00:00:00.473Z,3.10
2023-04-07T00:02:30.595Z,3.20
2023-04-07T00:04:58.700Z,2.80
2023-04-07T00:07:27.844Z,2.55
2023-04-07T00:09:54.928Z,3.03
2023-04-07T00:12:21.783Z,2.40
2023-04-07T00:14:48.471Z,3.20
2023-04-07T00:17:15.286Z,2.92
2023-04-07T00:19:42.953Z,2.95
2023-04-07T00:22:11.225Z,3.42
2023-04-07T00:24:37.707Z,3.40
2023-04-07T00:27:07.329Z,3.83
2023-04-07T00:29:33.901Z,3.63
2023-04-07T00:32:00.581Z,4.05
2023-04-07T00:34:27.148Z,3.92
2023-04-07T00:36:53.984Z,4.17
2023-04-07T00:39:21.392Z,3.50
2023-04-07T00:41:48.404Z,3.60
2023-04-07T00:44:15.008Z,3.35
2023-04-07T00:46:42.150Z,3.53
2023-04-07T00:49:11.210Z,3.00
2023-04-07T00:51:38.188Z,2.55
2023-04-07T00:54:21.275Z,3.33
2023-04-07T00:56:48.141Z,3.65
2023-04-07T01:02:54.848Z,2.83
2023-04-07T01:09:45.251Z,3.05
2023-04-07T01:18:43.047Z,2.53
2023-04-07T01:22:00.365Z,3.15
2023-04-07T01:28:32.515Z,4.10
2023-04-07T01:28:35.302Z,3.53
2023-04-07T01:40:43.766Z,3.97
2023-04-07T01:43:17.833Z,3.65
2023-04-07T01:46:30.279Z,3.97
2023-04-07T01:57:44.099Z,4.10
2023-04-07T02:06:44.030Z,4.37
2023-04-07T02:21:36.696Z,5.60
2023-04-07T02:27:41.546Z,4.80
2023-04-07T02:37:41.517Z,4.72
2023-04-07T02:41:08.380Z,4.77
2023-04-07T03:03:45.299Z,4.18
2023-04-07T03:07:44.251Z,4.05
2023-04-07T03:10:53.623Z,4.40
2023-04-07T03:13:31.192Z,4.18
2023-04-07T03:16:02.889Z,4.00
2023-04-07T03:18:37.528Z,3.45
2023-04-07T03:21:08.295Z,4.13
2023-04-07T03:23:42.032Z,3.60
2023-04-07T03:26:14.416Z,3.97
2023-04-07T03:28:41.017Z,4.00
2023-04-07T03:31:22.891Z,3.63
2023-04-07T03:33:56.269Z,3.63
2023-04-07T03:36:30.951Z,4.45
2023-04-07T03:39:07.531Z,3.65
2023-04-07T03:41:39.616Z,3.63
2023-04-07T04:14:02.104Z,3.10
2023-04-07T04:17:28.840Z,3.65
2023-04-07T04:20:05.449Z,2.83
2023-04-07T04:23:08.076Z,2.97
2023-04-07T04:25:34.873Z,3.33
2023-04-07T04:28:21.449Z,3.07
2023-04-07T04:31:15.970Z,3.17
2023-04-07T04:37:16.475Z,2.63
2023-04-07T04:39:43.112Z,2.60
2023-04-07T04:42:16.329Z,4.40
2023-04-07T04:48:43.301Z,3.03
2023-04-07T04:51:44.280Z,3.00
2023-04-07T05:01:34.161Z,3.00
2023-04-07T05:55:49.142Z,1.48
2023-04-07T05:58:37.868Z,2.00
2023-04-07T06:01:04.654Z,2.08
2023-04-07T06:03:31.855Z,1.73
2023-04-07T06:05:58.676Z,1.17
2023-04-07T06:08:25.463Z,1.67
2023-04-07T06:10:52.135Z,1.48
2023-04-07T06:13:23.687Z,1.20
2023-04-07T06:15:52.331Z,1.57
2023-04-07T06:18:19.238Z,1.88
2023-04-07T06:20:48.728Z,2.58
2023-04-07T06:23:17.021Z,1.50
2023-04-07T06:25:43.849Z,1.42
2023-04-07T06:28:11.053Z,1.63
2023-04-07T06:30:37.774Z,1.63
2023-04-07T06:33:05.035Z,1.27
2023-04-07T06:35:32.273Z,1.67
2023-04-07T06:37:58.927Z,1.50
2023-04-07T06:40:29.466Z,1.53
2023-04-07T06:42:56.646Z,1.55
2023-04-07T06:45:23.700Z,1.67
2023-04-07T06:47:52.304Z,1.98
2023-04-07T06:50:20.927Z,1.77
2023-04-07T06:52:47.856Z,1.93
2023-04-07T06:55:14.505Z,2.33
2023-04-07T06:57:41.181Z,2.13
2023-04-07T07:00:09.174Z,2.05
2023-04-07T07:02:36.118Z,2.25
2023-04-07T07:05:04.779Z,2.20
2023-04-07T07:07:31.364Z,2.33
2023-04-07T07:10:05.665Z,2.08
2023-04-07T07:12:36.479Z,3.10
2023-04-07T07:15:03.741Z,2.33
2023-04-07T07:17:35.660Z,2.47
2023-04-07T07:20:02.389Z,2.15
2023-04-07T07:22:29.223Z,2.22
2023-04-07T07:25:01.672Z,2.60
2023-04-07T07:27:29.673Z,2.97
2023-04-07T07:30:00.077Z,2.93
2023-04-07T07:32:26.814Z,2.50
2023-04-07T07:34:54.385Z,2.35
2023-04-07T07:37:27.045Z,3.58
2023-04-07T07:40:13.692Z,1.85
2023-04-07T07:42:41.395Z,2.55
2023-04-07T07:47:17.453Z,1.85
2023-04-07T07:49:30.125Z,2.25
2023-04-07T08:02:25.151Z,2.13
2023-04-07T08:05:00.994Z,2.42
2023-04-07T08:07:27.612Z,2.70
2023-04-07T08:09:57.598Z,1.90
2023-04-07T08:12:25.441Z,2.20
2023-04-07T08:14:52.063Z,1.35
2023-04-07T08:17:20.721Z,1.85
2023-04-07T08:19:47.405Z,1.60
2023-04-07T08:22:14.169Z,1.80
2023-04-07T08:24:41.179Z,1.77
2023-04-07T08:27:07.981Z,1.27
2023-04-07T08:29:35.029Z,0.80
2023-04-07T08:32:02.131Z,1.02
2023-04-07T08:34:28.877Z,1.00
2023-04-07T08:36:55.561Z,1.38
2023-04-07T08:39:22.979Z,1.00
2023-04-07T08:41:50.745Z,0.93
2023-04-07T08:44:20.682Z,0.70
2023-04-07T08:46:49.412Z,1.02
2023-04-07T08:49:20.214Z,0.50
2023-04-07T08:51:48.585Z,1.10
2023-04-07T08:54:28.283Z,0.60
2023-04-07T08:57:22.114Z,0.82
2023-04-07T08:59:51.457Z,0.68
2023-04-07T09:02:20.462Z,1.88
2023-04-07T09:04:47.675Z,0.70
2023-04-07T09:07:14.707Z,1.15
2023-04-07T09:10:04.917Z,1.30
2023-04-07T09:16:31.512Z,0.50
2023-04-07T09:18:58.709Z,0.40
2023-04-07T09:31:55.426Z,0.77
2023-04-07T09:34:40.922Z,0.85
2023-04-07T09:41:03.276Z,0.80
2023-04-07T09:43:41.230Z,0.63
2023-04-07T09:46:55.543Z,0.95
2023-04-07T09:49:56.420Z,0.38
2023-04-07T10:34:51.194Z,0.40
2023-04-07T10:37:21.098Z,0.40
2023-04-07T10:39:52.766Z,0.50
2023-04-07T10:42:37.642Z,0.68
2023-04-07T10:45:09.767Z,0.40
2023-04-07T10:47:59.282Z,0.30
2023-04-07T10:50:25.984Z,0.40
2023-04-07T10:53:09.583Z,0.20
2023-04-07T10:55:46.557Z,0.47
2023-04-07T10:58:16.241Z,0.52
2023-04-07T11:01:04.083Z,0.40
2023-04-07T11:03:34.087Z,0.40
2023-04-07T11:06:11.240Z,0.30
2023-04-07T11:08:44.205Z,0.40
2023-04-07T11:11:15.382Z,0.40
2023-04-07T11:13:49.317Z,0.57
2023-04-07T11:16:20.245Z,0.65
2023-04-07T11:18:48.190Z,1.40
2023-04-07T11:21:19.496Z,0.75
2023-04-07T11:23:47.699Z,1.35
2023-04-07T11:26:15.674Z,0.65
2023-04-07T11:28:51.435Z,0.88
2023-04-07T11:31:31.142Z,0.73
2023-04-07T11:34:05.356Z,0.57
2023-04-07T11:36:35.567Z,0.90
2023-04-07T11:39:03.061Z,0.40
2023-04-07T11:41:31.324Z,0.73
2023-04-07T11:44:09.506Z,0.90
2023-04-07T11:46:37.458Z,0.77
2023-04-07T11:49:14.877Z,0.40
2023-04-07T11:51:43.713Z,0.50
2023-04-07T11:54:11.128Z,0.95
2023-04-07T11:56:46.498Z,0.80
2023-04-07T11:59:24.269Z,0.40
2023-04-07T12:01:55.335Z,1.05
2023-04-07T12:04:23.950Z,0.73
2023-04-07T12:06:51.653Z,0.70
2023-04-07T12:09:35.992Z,0.70
2023-04-07T12:12:03.964Z,0.82
2023-04-07T12:14:30.484Z,0.95
2023-04-07T12:16:58.228Z,1.88
2023-04-07T12:19:28.114Z,0.65
2023-04-07T12:21:55.349Z,0.98
2023-04-07T12:24:22.307Z,0.77
2023-04-07T12:26:48.854Z,0.68
2023-04-07T12:29:17.213Z,0.70
2023-04-07T12:31:43.941Z,0.52
2023-04-07T12:34:10.396Z,2.40
2023-04-07T12:36:37.774Z,0.93
2023-04-07T12:39:04.681Z,0.73
2023-04-07T12:41:31.447Z,0.50
2023-04-07T12:43:57.936Z,0.47
2023-04-07T12:46:24.553Z,0.50
2023-04-07T12:48:51.638Z,0.60
2023-04-07T12:51:18.452Z,0.50
2023-04-07T12:53:45.017Z,0.52
2023-04-07T12:56:13.171Z,1.02
2023-04-07T12:58:40.668Z,0.80
2023-04-07T13:01:07.908Z,0.70
2023-04-07T13:03:34.687Z,0.70
2023-04-07T13:06:01.605Z,0.40
2023-04-07T13:08:29.234Z,0.40
2023-04-07T13:10:56.777Z,0.77
2023-04-07T13:13:23.736Z,0.50
2023-04-07T13:15:50.523Z,0.93
2023-04-07T13:18:17.175Z,0.40
2023-04-07T13:20:45.339Z,1.20
2023-04-07T13:23:18.669Z,0.50
2023-04-07T13:25:45.403Z,0.55
2023-04-07T13:28:11.881Z,0.60
2023-04-07T13:30:39.523Z,0.45
2023-04-07T13:33:06.225Z,0.40
2023-04-07T13:35:35.903Z,0.75
2023-04-07T13:38:03.703Z,1.15
2023-04-07T13:40:31.068Z,1.23
2023-04-07T13:42:58.235Z,1.20
2023-04-07T13:45:24.761Z,1.67
2023-04-07T13:47:51.370Z,1.00
2023-04-07T13:50:17.992Z,0.95
2023-04-07T13:52:44.419Z,0.90
2023-04-07T13:55:10.865Z,0.70
2023-04-07T13:57:37.366Z,0.52
2023-04-07T14:00:04.278Z,0.50
2023-04-07T14:02:32.445Z,0.63
2023-04-07T14:04:59.175Z,1.55
2023-04-07T14:07:25.911Z,0.80
2023-04-07T14:09:54.458Z,0.60
2023-04-07T14:12:23.436Z,0.50
2023-04-07T14:14:54.713Z,0.85
2023-04-07T14:17:21.514Z,0.70
2023-04-07T14:19:48.069Z,1.63
2023-04-07T14:22:15.430Z,2.25
2023-04-07T14:24:42.693Z,0.90
2023-04-07T14:27:09.213Z,0.70
2023-04-07T14:29:35.861Z,0.60
2023-04-07T14:32:02.652Z,0.77
2023-04-07T14:34:29.138Z,0.57
2023-04-07T14:36:57.191Z,0.45
2023-04-07T14:39:24.089Z,0.57
2023-04-07T14:41:52.287Z,0.63
2023-04-07T14:44:18.741Z,0.60
2023-04-07T14:46:45.465Z,0.60
2023-04-07T14:49:13.626Z,0.47
2023-04-07T14:51:40.472Z,1.20
2023-04-07T14:54:07.924Z,0.73
2023-04-07T14:56:34.423Z,1.20
2023-04-07T14:59:01.135Z,1.50
2023-04-07T15:01:27.847Z,1.27
2023-04-07T15:03:54.815Z,2.13
2023-04-07T15:06:22.227Z,1.80
2023-04-07T15:08:48.779Z,1.80
2023-04-07T15:11:15.320Z,2.45
2023-04-07T15:13:41.793Z,2.50
2023-04-07T15:16:11.137Z,2.72
2023-04-07T15:18:39.795Z,1.73
2023-04-07T15:21:08.738Z,1.95
2023-04-07T15:23:39.061Z,1.65
2023-04-07T15:26:06.474Z,0.98
2023-04-07T15:28:33.259Z,0.95
2023-04-07T15:31:01.265Z,1.42
2023-04-07T15:33:27.878Z,1.05
2023-04-07T15:35:54.351Z,0.60
2023-04-07T15:38:20.970Z,1.98
2023-04-07T15:40:47.566Z,0.80
2023-04-07T15:43:14.519Z,1.00
2023-04-07T15:45:43.400Z,1.75
2023-04-07T15:48:11.622Z,1.60
2023-04-07T15:50:38.215Z,1.20
2023-04-07T15:53:05.488Z,1.73
2023-04-07T15:55:33.795Z,1.77
2023-04-07T15:58:01.315Z,1.05
2023-04-07T16:00:30.318Z,1.38
2023-04-07T16:02:57.034Z,1.80
2023-04-07T16:05:23.605Z,1.42
2023-04-07T16:07:50.210Z,1.23
2023-04-07T16:10:19.690Z,1.42
2023-04-07T16:12:46.987Z,1.83
2023-04-07T16:15:16.707Z,2.33
2023-04-07T16:17:48.534Z,2.70
2023-04-07T16:20:15.825Z,2.47
2023-04-07T16:22:48.603Z,2.60
2023-04-07T16:25:16.432Z,2.78
2023-04-07T16:27:44.930Z,3.17
2023-04-07T16:30:13.673Z,3.10
2023-04-07T16:32:43.589Z,3.22
2023-04-07T16:35:11.386Z,3.40
2023-04-07T16:37:38.812Z,2.90
2023-04-07T16:40:06.578Z,2.78
2023-04-07T16:42:34.103Z,3.05
2023-04-07T16:45:01.436Z,3.10
2023-04-07T16:47:29.297Z,3.75
2023-04-07T16:49:56.892Z,4.15
2023-04-07T16:52:24.009Z,3.58
2023-04-07T16:54:51.021Z,4.03
2023-04-07T16:57:17.498Z,4.20
2023-04-07T16:59:43.933Z,3.65
2023-04-07T17:02:13.163Z,4.55
2023-04-07T17:04:41.094Z,4.03
2023-04-07T17:07:08.091Z,5.68
2023-04-07T17:09:34.737Z,4.25
2023-04-07T17:12:02.040Z,4.18
2023-04-07T17:14:29.264Z,4.25
2023-04-07T17:16:56.159Z,4.63
2023-04-07T17:19:22.694Z,3.90
2023-04-07T17:21:49.196Z,3.95
2023-04-07T17:24:16.766Z,4.20
2023-04-07T17:26:46.616Z,3.70
2023-04-07T17:29:14.356Z,3.53
2023-04-07T17:31:41.136Z,4.07
2023-04-07T17:34:07.800Z,4.57
2023-04-07T17:36:34.544Z,4.47
2023-04-07T17:39:01.575Z,3.60
2023-04-07T17:41:29.082Z,4.17
2023-04-07T17:43:55.934Z,4.50
2023-04-07T17:46:23.415Z,4.63
2023-04-07T17:48:51.827Z,4.63
2023-04-07T17:51:18.433Z,5.13
2023-04-07T17:53:45.087Z,5.55
2023-04-07T17:56:12.656Z,5.03
2023-04-07T17:58:39.289Z,5.68
2023-04-07T18:01:09.411Z,6.30
2023-04-07T18:03:36.898Z,5.75
2023-04-07T18:06:04.832Z,5.60
2023-04-07T18:08:31.818Z,6.20
2023-04-07T18:10:58.471Z,6.70
2023-04-07T18:13:25.148Z,6.53
2023-04-07T18:15:51.937Z,5.82
2023-04-07T18:18:19.822Z,5.53
2023-04-07T18:20:46.602Z,6.30
2023-04-07T18:23:13.640Z,5.65
2023-04-07T18:25:40.236Z,6.85
2023-04-07T18:28:07.216Z,6.30
2023-04-07T18:30:33.979Z,6.40
2023-04-07T18:33:00.796Z,6.93
2023-04-07T18:35:28.588Z,7.68
2023-04-07T18:37:55.479Z,7.80
2023-04-07T18:40:22.207Z,7.40
2023-04-07T18:42:49.055Z,7.85
2023-04-07T18:45:15.690Z,7.45
2023-04-07T18:47:42.185Z,7.10
2023-04-07T18:50:08.993Z,7.40
2023-04-07T18:52:35.678Z,6.30
2023-04-07T18:55:02.199Z,6.90
2023-04-07T18:57:29.316Z,7.70
2023-04-07T18:59:55.707Z,8.70
2023-04-07T19:02:22.282Z,7.45
2023-04-07T19:04:49.306Z,8.25
2023-04-07T19:07:15.836Z,8.43
2023-04-07T19:09:42.500Z,8.57
2023-04-07T19:12:09.435Z,9.18
2023-04-07T19:14:35.839Z,9.25
2023-04-07T19:17:02.424Z,9.32
2023-04-07T19:19:29.290Z,9.47
2023-04-07T19:21:55.927Z,9.75
2023-04-07T19:24:22.342Z,9.85
2023-04-07T19:26:48.790Z,9.45
2023-04-07T19:29:15.378Z,10.07
2023-04-07T19:31:41.931Z,10.82
2023-04-07T19:34:08.440Z,10.02
2023-04-07T19:36:34.812Z,10.35
2023-04-07T19:39:01.262Z,10.23
2023-04-07T19:41:29.231Z,9.98
2023-04-07T19:43:55.895Z,10.40
2023-04-07T19:46:22.542Z,10.98
2023-04-07T19:48:49.080Z,11.27
2023-04-07T19:51:15.926Z,12.20
2023-04-07T19:53:42.368Z,11.75
2023-04-07T19:56:08.841Z,11.77
2023-04-07T19:58:35.540Z,11.38
2023-04-07T20:01:04.389Z,12.32
2023-04-07T20:03:31.454Z,11.20
2023-04-07T20:05:58.108Z,12.07
2023-04-07T20:08:24.514Z,12.10
2023-04-07T20:10:52.534Z,10.73
2023-04-07T20:13:20.224Z,12.25
2023-04-07T20:15:49.044Z,11.50
2023-04-07T20:18:18.401Z,12.15
2023-04-07T20:20:45.923Z,12.27
2023-04-07T20:23:13.533Z,12.57
2023-04-07T20:25:40.077Z,12.90
2023-04-07T20:28:06.605Z,12.43
2023-04-07T20:30:33.202Z,11.70
2023-04-07T20:32:59.809Z,12.35
2023-04-07T20:35:26.629Z,12.55
2023-04-07T20:37:53.211Z,12.65
2023-04-07T20:40:20.971Z,13.10
2023-04-07T20:42:47.475Z,11.55
2023-04-07T20:45:13.944Z,12.17
2023-04-07T20:47:40.565Z,12.55
2023-04-07T20:50:08.239Z,13.70
2023-04-07T20:52:39.427Z,13.35
2023-04-07T20:55:07.235Z,13.65
2023-04-07T20:57:33.791Z,14.40
2023-04-07T21:00:00.872Z,14.63
2023-04-07T21:02:27.543Z,13.43
2023-04-07T21:04:54.086Z,14.82
2023-04-07T21:07:20.716Z,14.77
2023-04-07T21:09:47.224Z,14.33
2023-04-07T21:12:14.187Z,14.80
2023-04-07T21:14:40.778Z,14.57
2023-04-07T21:17:07.389Z,14.75
2023-04-07T21:19:33.906Z,13.93
2023-04-07T21:22:00.980Z,14.00
2023-04-07T21:24:27.464Z,14.45
2023-04-07T21:26:54.499Z,14.60
2023-04-07T21:29:22.084Z,13.48
2023-04-07T21:31:48.928Z,13.60
2023-04-07T21:34:15.477Z,13.93
2023-04-07T21:36:42.117Z,13.90
2023-04-07T21:39:08.995Z,13.23
2023-04-07T21:41:35.679Z,12.82
2023-04-07T21:44:02.260Z,11.95
2023-04-07T21:46:29.203Z,11.17
2023-04-07T21:48:55.757Z,10.80
2023-04-07T21:51:22.619Z,10.65
2023-04-07T21:53:49.216Z,10.75
2023-04-07T21:56:15.733Z,10.38
2023-04-07T21:58:42.294Z,8.87
2023-04-07T22:01:08.873Z,10.27
2023-04-07T22:03:35.533Z,10.93
2023-04-07T22:06:02.383Z,9.23
2023-04-07T22:08:28.950Z,9.32
2023-04-07T22:10:55.493Z,11.93
2023-04-07T22:13:22.064Z,10.52
2023-04-07T22:15:48.552Z,11.30
2023-04-07T22:18:15.090Z,12.45
2023-04-07T22:20:41.807Z,11.27
2023-04-07T22:23:08.178Z,11.20
2023-04-07T22:25:34.942Z,11.20
2023-04-07T22:28:01.534Z,11.55
2023-04-07T22:30:28.021Z,11.73
2023-04-07T22:32:54.544Z,11.00
2023-04-07T22:35:21.063Z,9.63
2023-04-07T22:37:47.539Z,10.80
2023-04-07T22:40:14.005Z,10.88
2023-04-07T22:42:40.649Z,10.45
2023-04-07T22:45:07.750Z,11.25
2023-04-07T22:47:34.264Z,11.60
2023-04-07T22:50:00.743Z,11.63
2023-04-07T22:52:27.221Z,10.85
2023-04-07T22:54:53.795Z,10.68
2023-04-07T22:57:20.514Z,11.95
2023-04-07T22:59:46.946Z,11.18
2023-04-07T23:02:13.445Z,11.95
2023-04-07T23:04:40.009Z,11.10
2023-04-07T23:07:06.683Z,11.50
2023-04-07T23:09:33.170Z,12.43
2023-04-07T23:11:59.640Z,11.50
2023-04-07T23:14:26.165Z,11.65
2023-04-07T23:16:56.087Z,10.20
2023-04-07T23:19:22.779Z,10.52
2023-04-07T23:21:49.390Z,11.43
2023-04-07T23:24:16.111Z,10.43
2023-04-07T23:26:42.526Z,10.07
2023-04-07T23:29:09.006Z,10.13
2023-04-07T23:31:35.879Z,9.20
2023-04-07T23:34:04.228Z,8.82
2023-04-07T23:36:31.466Z,8.40
2023-04-07T23:38:57.930Z,8.35
2023-04-07T23:41:24.510Z,9.57
2023-04-07T23:43:51.025Z,8.65
2023-04-07T23:46:17.550Z,8.93
2023-04-07T23:48:44.113Z,8.70
2023-04-07T23:51:10.696Z,11.23
2023-04-07T23:53:37.262Z,9.70
2023-04-07T23:56:03.782Z,10.05
2023-04-07T23:58:30.402Z,8.68
